createdAt,value
2022-08-25T00:00:24.043Z,7.63
2022-08-25T00:02:58.112Z,7.75
2022-08-25T00:05:33.337Z,7.47
2022-08-25T00:08:06.095Z,7.28
2022-08-25T00:10:38.572Z,7.78
2022-08-25T00:13:09.051Z,7.63
2022-08-25T00:15:39.751Z,8.23
2022-08-25T00:18:19.714Z,8.02
2022-08-25T00:20:50.676Z,7.85
2022-08-25T00:23:21.035Z,7.30
2022-08-25T00:25:51.355Z,7.78
2022-08-25T00:28:21.410Z,7.55
2022-08-25T00:30:51.984Z,7.28
2022-08-25T00:33:24.800Z,8.27
2022-08-25T00:35:56.489Z,8.18
2022-08-25T00:38:26.828Z,8.98
2022-08-25T00:41:08.547Z,8.10
2022-08-25T00:43:46.087Z,8.18
2022-08-25T00:46:18.686Z,8.80
2022-08-25T00:48:55.925Z,8.40
2022-08-25T00:51:32.602Z,9.00
2022-08-25T00:54:03.139Z,8.50
2022-08-25T00:56:35.392Z,10.23
2022-08-25T00:59:08.229Z,9.82
2022-08-25T01:01:38.853Z,9.65
2022-08-25T01:04:11.673Z,9.18
2022-08-25T01:09:07.376Z,8.77
2022-08-25T01:11:37.714Z,8.18
2022-08-25T01:14:08.748Z,8.60
2022-08-25T01:16:40.145Z,7.38
2022-08-25T01:19:15.446Z,8.35
2022-08-25T01:21:50.764Z,10.60
2022-08-25T01:24:28.880Z,9.57
2022-08-25T01:26:59.499Z,9.05
2022-08-25T01:29:29.977Z,9.13
2022-08-25T01:32:02.495Z,10.38
2022-08-25T01:34:34.470Z,10.32
2022-08-25T01:37:08.160Z,9.82
2022-08-25T01:39:42.318Z,10.32
2022-08-25T01:42:27.089Z,10.93
2022-08-25T01:44:57.663Z,10.75
2022-08-25T01:47:27.985Z,10.38
2022-08-25T01:49:58.259Z,10.00
2022-08-25T01:52:35.423Z,10.45
2022-08-25T01:55:05.773Z,10.38
2022-08-25T01:57:36.066Z,9.68
2022-08-25T02:00:08.635Z,10.15
2022-08-25T02:02:42.508Z,11.35
2022-08-25T02:05:13.371Z,10.75
2022-08-25T02:07:46.648Z,11.93
2022-08-25T02:10:17.533Z,10.80
2022-08-25T02:12:47.778Z,9.60
2022-08-25T02:15:18.010Z,11.88
2022-08-25T02:17:48.235Z,10.30
2022-08-25T02:20:19.075Z,10.15
2022-08-25T02:22:56.768Z,9.57
2022-08-25T02:25:27.415Z,10.43
2022-08-25T02:27:58.426Z,11.00
2022-08-25T02:30:28.841Z,10.27
2022-08-25T02:32:59.100Z,10.15
2022-08-25T02:35:29.738Z,10.90
2022-08-25T02:38:02.605Z,10.15
2022-08-25T02:40:32.981Z,10.68
2022-08-25T02:43:03.270Z,10.38
2022-08-25T02:45:33.375Z,10.07
2022-08-25T02:48:03.437Z,9.45
2022-08-25T02:50:33.851Z,9.82
2022-08-25T02:53:07.606Z,10.60
2022-08-25T02:55:37.600Z,9.93
2022-08-25T02:58:09.126Z,9.95
2022-08-25T03:00:39.815Z,9.45
2022-08-25T03:03:10.225Z,9.02
2022-08-25T03:05:40.587Z,9.73
2022-08-25T03:08:13.545Z,8.65
2022-08-25T03:10:43.828Z,10.15
2022-08-25T03:13:14.204Z,10.25
2022-08-25T03:15:44.591Z,9.77
2022-08-25T03:18:15.567Z,10.60
2022-08-25T03:20:46.059Z,10.82
2022-08-25T03:23:20.123Z,10.80
2022-08-25T03:26:02.592Z,9.65
2022-08-25T03:28:34.065Z,9.85
2022-08-25T03:31:04.440Z,11.43
2022-08-25T03:33:34.792Z,12.85
2022-08-25T03:36:05.529Z,11.77
2022-08-25T03:38:38.897Z,11.43
2022-08-25T03:41:15.025Z,11.57
2022-08-25T03:43:45.376Z,11.27
2022-08-25T03:46:22.405Z,10.15
2022-08-25T03:48:53.162Z,10.65
2022-08-25T03:51:24.694Z,11.43
2022-08-25T03:53:57.523Z,11.25
2022-08-25T03:56:27.605Z,10.57
2022-08-25T03:58:57.878Z,10.43
2022-08-25T04:01:29.072Z,11.05
2022-08-25T04:03:59.362Z,11.43
2022-08-25T04:06:29.755Z,9.65
2022-08-25T04:09:02.631Z,10.65
2022-08-25T04:11:32.624Z,9.85
2022-08-25T04:14:04.285Z,9.50
2022-08-25T04:16:37.599Z,10.50
2022-08-25T04:19:09.483Z,9.45
2022-08-25T04:21:40.677Z,10.45
2022-08-25T04:24:14.379Z,11.75
2022-08-25T04:26:46.068Z,11.48
2022-08-25T04:29:17.644Z,12.65
2022-08-25T04:31:50.321Z,12.02
2022-08-25T04:34:29.931Z,11.85
2022-08-25T04:37:02.783Z,12.85
2022-08-25T04:39:35.700Z,12.23
2022-08-25T04:42:06.236Z,13.40
2022-08-25T04:44:36.525Z,13.10
2022-08-25T04:47:06.828Z,12.93
2022-08-25T04:49:37.239Z,13.75
2022-08-25T04:52:14.444Z,12.65
2022-08-25T04:54:47.312Z,13.75
2022-08-25T04:57:17.345Z,13.60
2022-08-25T04:59:47.595Z,14.43
2022-08-25T05:02:17.850Z,15.18
2022-08-25T05:04:47.816Z,14.77
2022-08-25T05:07:17.816Z,15.27
2022-08-25T05:09:50.382Z,14.63
2022-08-25T05:12:20.366Z,13.82
2022-08-25T05:14:50.330Z,14.88
2022-08-25T05:17:20.345Z,14.80
2022-08-25T05:19:52.835Z,15.00
2022-08-25T05:22:22.798Z,14.52
2022-08-25T05:24:55.610Z,14.27
2022-08-25T05:27:25.886Z,13.65
2022-08-25T05:29:56.119Z,14.02
2022-08-25T05:32:26.452Z,14.30
2022-08-25T05:34:56.703Z,14.40
2022-08-25T05:37:26.947Z,15.07
2022-08-25T05:39:59.842Z,14.20
2022-08-25T05:42:31.017Z,13.70
2022-08-25T05:45:01.044Z,15.27
2022-08-25T05:47:31.086Z,15.50
2022-08-25T05:50:01.419Z,15.43
2022-08-25T05:52:31.726Z,15.30
2022-08-25T05:55:04.576Z,15.20
2022-08-25T05:57:35.877Z,14.40
2022-08-25T06:00:08.478Z,15.10
2022-08-25T06:02:44.092Z,14.13
2022-08-25T06:05:15.323Z,14.27
2022-08-25T06:07:46.075Z,15.52
2022-08-25T06:10:20.221Z,15.68
2022-08-25T06:12:50.609Z,15.38
2022-08-25T06:15:23.795Z,13.93
2022-08-25T06:18:05.373Z,14.13
2022-08-25T06:20:35.670Z,12.60
2022-08-25T06:23:05.970Z,14.07
2022-08-25T06:25:40.235Z,13.40
2022-08-25T06:28:10.232Z,13.27
2022-08-25T06:30:42.347Z,13.40
2022-08-25T06:33:12.452Z,15.23
2022-08-25T06:35:45.023Z,13.80
2022-08-25T06:38:15.005Z,14.25
2022-08-25T06:40:52.165Z,15.20
2022-08-25T06:43:22.446Z,13.77
2022-08-25T06:45:52.466Z,13.93
2022-08-25T06:48:23.937Z,13.48
2022-08-25T06:50:54.243Z,12.75
2022-08-25T06:53:24.510Z,13.13
2022-08-25T06:56:06.009Z,12.05
2022-08-25T06:58:36.962Z,12.65
2022-08-25T07:01:15.687Z,13.65
2022-08-25T07:03:52.652Z,11.70
2022-08-25T07:06:23.063Z,12.35
2022-08-25T07:08:53.337Z,12.00
2022-08-25T07:11:26.567Z,11.85
2022-08-25T07:13:56.950Z,11.25
2022-08-25T07:16:29.809Z,11.07
2022-08-25T07:19:01.526Z,11.27
2022-08-25T07:21:35.492Z,12.07
2022-08-25T07:24:08.422Z,10.98
2022-08-25T07:26:43.458Z,10.25
2022-08-25T07:29:16.451Z,10.18
2022-08-25T07:31:48.446Z,10.45
2022-08-25T07:34:31.341Z,9.57
2022-08-25T07:37:05.237Z,10.20
2022-08-25T07:39:37.332Z,9.38
2022-08-25T07:42:12.060Z,9.48
2022-08-25T07:44:43.421Z,9.57
2022-08-25T07:47:15.859Z,9.70
2022-08-25T07:49:46.099Z,9.10
2022-08-25T07:52:16.387Z,8.60
2022-08-25T07:54:47.392Z,7.88
2022-08-25T07:57:22.202Z,7.72
2022-08-25T07:59:52.428Z,7.90
2022-08-25T08:02:24.757Z,7.70
2022-08-25T08:04:56.298Z,7.72
2022-08-25T08:07:41.983Z,8.25
2022-08-25T08:10:48.112Z,7.63
2022-08-25T08:13:07.667Z,7.38
2022-08-25T08:15:38.573Z,6.95
2022-08-25T08:18:08.887Z,6.80
2022-08-25T08:20:42.566Z,6.32
2022-08-25T08:23:13.729Z,6.25
2022-08-25T08:25:44.460Z,6.15
2022-08-25T08:28:17.352Z,5.85
2022-08-25T08:30:52.951Z,5.75
2022-08-25T08:33:25.569Z,5.68
2022-08-25T08:36:05.208Z,6.63
2022-08-25T08:38:35.916Z,5.95
2022-08-25T08:41:23.663Z,6.05
2022-08-25T08:47:09.055Z,5.68
2022-08-25T08:52:11.739Z,5.53
2022-08-25T08:54:44.079Z,5.63
2022-08-25T08:57:16.712Z,7.05
2022-08-25T08:59:54.576Z,6.53
2022-08-25T09:02:38.537Z,6.55
2022-08-25T09:05:21.010Z,6.80
2022-08-25T09:07:54.721Z,6.47
2022-08-25T09:10:27.034Z,6.95
2022-08-25T09:13:01.568Z,6.05
2022-08-25T09:15:57.441Z,8.00
2022-08-25T09:18:32.758Z,6.88
2022-08-25T09:21:07.618Z,7.00
2022-08-25T09:23:46.967Z,5.55
2022-08-25T09:26:31.475Z,6.13
2022-08-25T09:29:06.203Z,7.05
2022-08-25T09:31:41.888Z,6.40
2022-08-25T09:34:16.090Z,5.93
2022-08-25T09:36:48.606Z,6.45
2022-08-25T09:39:19.741Z,6.23
2022-08-25T09:41:56.114Z,6.70
2022-08-25T09:44:28.339Z,5.85
2022-08-25T09:47:05.556Z,5.55
2022-08-25T09:49:43.165Z,6.05
2022-08-25T09:52:22.301Z,5.72
2022-08-25T09:54:53.132Z,5.03
2022-08-25T09:57:38.514Z,5.03
2022-08-25T10:00:19.236Z,5.20
2022-08-25T10:03:15.574Z,5.03
2022-08-25T10:06:01.030Z,4.65
2022-08-25T10:08:36.461Z,5.25
2022-08-25T10:11:09.061Z,5.32
2022-08-25T10:13:43.880Z,5.72
2022-08-25T10:16:24.309Z,5.80
2022-08-25T10:19:13.267Z,5.72
2022-08-25T10:21:44.696Z,5.93
2022-08-25T10:24:20.749Z,5.78
2022-08-25T10:26:59.172Z,5.88
2022-08-25T10:29:35.112Z,5.80
2022-08-25T10:32:12.511Z,5.70
2022-08-25T10:34:52.560Z,5.30
2022-08-25T10:37:33.195Z,5.38
2022-08-25T10:40:11.583Z,5.60
2022-08-25T10:42:48.388Z,5.80
2022-08-25T10:45:35.629Z,5.70
2022-08-25T10:48:15.469Z,5.43
2022-08-25T10:50:55.434Z,5.70
2022-08-25T10:53:29.527Z,5.78
2022-08-25T10:56:07.080Z,6.00
2022-08-25T10:58:52.650Z,5.15
2022-08-25T11:01:32.948Z,5.80
2022-08-25T11:04:09.818Z,5.38
2022-08-25T11:06:50.253Z,5.07
2022-08-25T11:09:26.027Z,5.45
2022-08-25T11:11:59.450Z,5.20
2022-08-25T11:17:08.540Z,5.45
2022-08-25T11:19:40.749Z,5.30
2022-08-25T11:22:19.163Z,5.90
2022-08-25T11:25:03.966Z,5.63
2022-08-25T11:27:37.547Z,5.57
2022-08-25T11:30:11.473Z,5.93
2022-08-25T11:32:43.273Z,5.63
2022-08-25T11:35:15.642Z,6.10
2022-08-25T11:37:57.095Z,5.30
2022-08-25T11:40:36.850Z,5.47
2022-08-25T11:43:13.649Z,5.15
2022-08-25T11:45:55.006Z,5.35
2022-08-25T11:48:30.877Z,5.50
2022-08-25T11:51:04.902Z,6.43
2022-08-25T11:53:38.846Z,5.20
2022-08-25T11:56:13.690Z,5.43
2022-08-25T11:58:45.906Z,4.60
2022-08-25T12:01:43.140Z,4.45
2022-08-25T12:04:44.228Z,4.35
2022-08-25T12:07:36.606Z,5.13
2022-08-25T12:10:21.593Z,4.75
2022-08-25T12:13:04.825Z,4.95
2022-08-25T12:16:01.548Z,5.07
2022-08-25T12:18:45.512Z,4.95
2022-08-25T12:24:10.309Z,4.70
2022-08-25T12:26:48.752Z,4.38
2022-08-25T12:29:21.443Z,4.85
2022-08-25T12:32:20.175Z,4.35
2022-08-25T12:34:57.758Z,4.78
2022-08-25T12:37:29.106Z,5.30
2022-08-25T12:40:05.322Z,4.45
2022-08-25T12:42:38.684Z,4.97
2022-08-25T12:45:18.156Z,19.90
2022-08-25T12:47:49.616Z,4.53
2022-08-25T12:50:35.595Z,4.00
2022-08-25T12:53:12.894Z,4.70
2022-08-25T12:55:50.040Z,4.32
2022-08-25T12:58:20.354Z,4.47
2022-08-25T13:01:01.185Z,4.68
2022-08-25T13:03:55.518Z,3.97
2022-08-25T13:06:35.084Z,4.60
2022-08-25T13:09:35.867Z,4.38
2022-08-25T13:12:12.971Z,3.97
2022-08-25T13:14:45.269Z,3.85
2022-08-25T13:17:16.540Z,4.10
2022-08-25T13:19:46.815Z,4.00
2022-08-25T13:22:20.909Z,4.05
2022-08-25T13:27:39.953Z,4.13
2022-08-25T13:30:10.764Z,4.57
2022-08-25T13:32:41.075Z,4.50
2022-08-25T13:35:15.340Z,3.60
2022-08-25T13:37:45.848Z,4.63
2022-08-25T13:40:19.172Z,4.03
2022-08-25T13:45:34.745Z,4.57
2022-08-25T13:48:22.509Z,4.22
2022-08-25T13:50:54.183Z,4.72
2022-08-25T13:53:30.507Z,4.20
2022-08-25T13:56:03.446Z,3.72
2022-08-25T13:58:45.420Z,4.17
2022-08-25T14:01:23.469Z,4.40
2022-08-25T14:07:20.159Z,4.03
2022-08-25T14:09:52.203Z,3.65
2022-08-25T14:12:33.843Z,3.85
2022-08-25T14:15:05.728Z,3.72
2022-08-25T14:17:40.898Z,3.53
2022-08-25T14:20:20.427Z,3.92
2022-08-25T14:22:50.977Z,4.28
2022-08-25T14:25:21.685Z,3.50
2022-08-25T14:28:07.324Z,3.30
2022-08-25T14:30:39.622Z,3.92
2022-08-25T14:33:16.593Z,3.70
2022-08-25T14:35:48.497Z,3.17
2022-08-25T14:38:19.767Z,4.05
2022-08-25T14:40:51.097Z,4.05
2022-08-25T14:43:24.060Z,3.75
2022-08-25T14:46:02.575Z,4.07
2022-08-25T14:48:37.201Z,3.40
2022-08-25T14:51:07.679Z,3.15
2022-08-25T14:53:38.015Z,3.50
2022-08-25T14:56:10.401Z,4.05
2022-08-25T14:58:51.416Z,3.33
2022-08-25T15:01:28.751Z,3.78
2022-08-25T15:04:05.616Z,3.97
2022-08-25T15:06:37.990Z,4.00
2022-08-25T15:09:11.136Z,3.50
2022-08-25T15:11:43.927Z,4.07
2022-08-25T15:14:17.429Z,4.18
2022-08-25T15:16:50.992Z,3.70
2022-08-25T15:19:27.091Z,4.50
2022-08-25T15:21:59.377Z,3.92
2022-08-25T15:24:33.944Z,4.32
2022-08-25T15:27:10.138Z,3.60
2022-08-25T15:29:41.028Z,4.03
2022-08-25T15:32:12.519Z,3.78
2022-08-25T15:34:45.764Z,4.03
2022-08-25T15:37:18.756Z,4.47
2022-08-25T15:39:49.424Z,3.75
2022-08-25T15:42:19.730Z,4.45
2022-08-25T15:44:53.338Z,3.70
2022-08-25T15:47:24.403Z,3.90
2022-08-25T15:50:03.388Z,3.78
2022-08-25T15:52:46.200Z,3.95
2022-08-25T15:55:18.354Z,3.45
2022-08-25T15:57:50.597Z,4.07
2022-08-25T16:00:22.069Z,4.60
2022-08-25T16:02:52.526Z,3.92
2022-08-25T16:05:26.248Z,3.47
2022-08-25T16:07:57.357Z,4.10
2022-08-25T16:10:27.690Z,4.05
2022-08-25T16:12:57.964Z,4.18
2022-08-25T16:15:28.846Z,4.07
2022-08-25T16:17:59.305Z,4.20
2022-08-25T16:20:33.179Z,3.53
2022-08-25T16:23:04.097Z,3.70
2022-08-25T16:25:36.283Z,4.22
2022-08-25T16:28:07.039Z,4.00
2022-08-25T16:30:37.349Z,3.78
2022-08-25T16:33:08.455Z,4.05
2022-08-25T16:35:43.359Z,4.37
2022-08-25T16:38:13.704Z,3.85
2022-08-25T16:40:44.123Z,4.05
2022-08-25T16:43:15.777Z,4.13
2022-08-25T16:45:46.348Z,4.28
2022-08-25T16:48:16.764Z,4.20
2022-08-25T16:50:50.715Z,4.22
2022-08-25T16:53:33.459Z,3.78
2022-08-25T16:56:06.658Z,4.20
2022-08-25T16:58:39.852Z,5.20
2022-08-25T17:01:12.672Z,3.70
2022-08-25T17:03:44.833Z,3.67
2022-08-25T17:06:17.503Z,3.45
2022-08-25T17:08:50.765Z,3.90
2022-08-25T17:11:23.358Z,4.28
2022-08-25T17:13:55.788Z,4.13
2022-08-25T17:16:28.643Z,4.60
2022-08-25T17:18:59.024Z,3.85
2022-08-25T17:21:36.288Z,4.30
2022-08-25T17:24:07.464Z,4.22
2022-08-25T17:26:39.775Z,3.83
2022-08-25T17:29:10.528Z,4.23
2022-08-25T17:31:44.193Z,3.85
2022-08-25T17:34:16.768Z,3.75
2022-08-25T17:36:53.314Z,4.45
2022-08-25T17:39:24.320Z,4.25
2022-08-25T17:41:54.792Z,4.05
2022-08-25T17:44:25.081Z,4.13
2022-08-25T17:46:55.416Z,4.25
2022-08-25T17:49:27.194Z,4.57
2022-08-25T17:51:59.803Z,3.90
2022-08-25T17:54:30.043Z,4.77
2022-08-25T17:57:02.076Z,4.00
2022-08-25T17:59:33.704Z,4.18
2022-08-25T18:02:04.264Z,4.43
2022-08-25T18:04:35.104Z,4.35
2022-08-25T18:07:10.588Z,3.90
2022-08-25T18:09:41.071Z,4.35
2022-08-25T18:12:12.601Z,4.40
2022-08-25T18:14:42.837Z,4.85
2022-08-25T18:19:52.297Z,4.20
2022-08-25T18:22:27.460Z,4.20
2022-08-25T18:24:59.974Z,4.53
2022-08-25T18:27:30.897Z,4.47
2022-08-25T18:30:01.206Z,4.70
2022-08-25T18:32:31.927Z,3.97
2022-08-25T18:35:02.180Z,4.72
2022-08-25T18:37:47.525Z,5.03
2022-08-25T18:40:28.142Z,4.78
2022-08-25T18:43:00.936Z,3.95
2022-08-25T18:45:32.259Z,3.80
2022-08-25T18:48:04.164Z,4.60
2022-08-25T18:50:38.570Z,5.32
2022-08-25T18:53:11.916Z,4.93
2022-08-25T18:55:43.014Z,5.18
2022-08-25T18:58:14.360Z,4.75
2022-08-25T19:00:45.779Z,4.13
2022-08-25T19:03:18.494Z,4.18
2022-08-25T19:05:57.080Z,5.07
2022-08-25T19:08:30.631Z,4.55
2022-08-25T19:11:00.925Z,4.68
2022-08-25T19:13:31.397Z,4.90
2022-08-25T19:16:02.270Z,4.80
2022-08-25T19:18:33.139Z,4.38
2022-08-25T19:21:04.662Z,4.70
2022-08-25T19:23:39.133Z,4.60
2022-08-25T19:26:16.912Z,5.10
2022-08-25T19:28:48.611Z,5.22
2022-08-25T19:31:19.600Z,4.85
2022-08-25T19:33:50.241Z,5.43
2022-08-25T19:36:22.985Z,4.63
2022-08-25T19:38:58.715Z,4.93
2022-08-25T19:41:30.673Z,4.68
2022-08-25T19:44:03.024Z,5.03
2022-08-25T19:46:36.293Z,6.63
2022-08-25T19:49:08.949Z,6.32
2022-08-25T19:51:40.271Z,5.83
2022-08-25T19:54:14.130Z,5.53
2022-08-25T19:56:54.598Z,5.70
2022-08-25T19:59:26.850Z,5.28
2022-08-25T20:02:11.764Z,5.57
2022-08-25T20:04:42.191Z,5.53
2022-08-25T20:07:12.666Z,5.22
2022-08-25T20:09:45.907Z,5.47
2022-08-25T20:12:16.660Z,5.20
2022-08-25T20:14:48.286Z,5.35
2022-08-25T20:17:24.822Z,6.55
2022-08-25T20:19:57.381Z,6.38
2022-08-25T20:22:28.851Z,5.28
2022-08-25T20:25:03.635Z,5.57
2022-08-25T20:30:23.241Z,5.47
2022-08-25T20:32:53.776Z,5.65
2022-08-25T20:35:26.566Z,6.18
2022-08-25T20:37:58.124Z,6.40
2022-08-25T20:40:33.403Z,6.43
2022-08-25T20:43:04.806Z,6.25
2022-08-25T20:45:40.831Z,6.65
2022-08-25T20:48:10.859Z,6.43
2022-08-25T20:50:41.581Z,6.47
2022-08-25T20:53:13.637Z,7.28
2022-08-25T20:55:47.406Z,7.35
2022-08-25T20:58:17.754Z,6.63
2022-08-25T21:00:49.243Z,7.05
2022-08-25T21:03:19.194Z,6.30
2022-08-25T21:05:53.514Z,6.55
2022-08-25T21:08:25.553Z,7.18
2022-08-25T21:10:58.475Z,7.00
2022-08-25T21:13:29.164Z,6.77
2022-08-25T21:18:35.957Z,7.38
2022-08-25T21:21:12.265Z,7.40
2022-08-25T21:23:42.597Z,7.07
2022-08-25T21:26:18.396Z,7.70
2022-08-25T21:28:49.166Z,7.88
2022-08-25T21:31:21.233Z,7.80
2022-08-25T21:33:54.535Z,7.05
2022-08-25T21:36:24.783Z,7.82
2022-08-25T21:38:56.021Z,7.75
2022-08-25T21:41:32.218Z,7.65
2022-08-25T21:44:03.506Z,7.53
2022-08-25T21:46:35.843Z,7.55
2022-08-25T21:49:07.659Z,7.50
2022-08-25T21:51:40.542Z,8.55
2022-08-25T21:54:13.260Z,7.57
2022-08-25T21:56:48.656Z,6.82
2022-08-25T21:59:20.978Z,7.20
2022-08-25T22:01:52.498Z,8.63
2022-08-25T22:04:22.847Z,8.80
2022-08-25T22:06:53.648Z,7.43
2022-08-25T22:09:24.721Z,7.90
2022-08-25T22:11:58.789Z,7.55
2022-08-25T22:14:29.862Z,8.48
2022-08-25T22:17:00.006Z,7.47
2022-08-25T22:19:30.529Z,8.07
2022-08-25T22:22:04.320Z,7.70
2022-08-25T22:24:34.320Z,7.82
2022-08-25T22:27:11.406Z,8.43
2022-08-25T22:29:46.108Z,8.10
2022-08-25T22:32:16.542Z,7.78
2022-08-25T22:34:46.595Z,7.45
2022-08-25T22:37:17.943Z,9.38
2022-08-25T22:39:49.194Z,7.20
2022-08-25T22:42:25.490Z,6.38
2022-08-25T22:44:56.456Z,7.47
2022-08-25T22:47:26.470Z,8.48
2022-08-25T22:49:56.975Z,7.78
2022-08-25T22:52:33.677Z,8.15
2022-08-25T22:55:05.682Z,7.65
2022-08-25T22:57:44.687Z,8.23
2022-08-25T23:00:16.835Z,7.80
2022-08-25T23:02:47.966Z,8.73
2022-08-25T23:05:18.438Z,8.52
2022-08-25T23:07:48.862Z,8.35
2022-08-25T23:10:20.835Z,8.45
2022-08-25T23:12:53.754Z,8.88
2022-08-25T23:15:24.226Z,8.37
2022-08-25T23:17:54.499Z,8.13
2022-08-25T23:20:37.514Z,9.52
2022-08-25T23:23:15.599Z,8.15
2022-08-25T23:25:45.842Z,9.27
2022-08-25T23:28:18.739Z,9.63
2022-08-25T23:30:54.563Z,8.63
2022-08-25T23:33:30.218Z,9.05
2022-08-25T23:36:01.768Z,8.80
2022-08-25T23:38:32.151Z,9.05
2022-08-25T23:41:02.807Z,8.68
2022-08-25T23:43:35.935Z,9.85
2022-08-25T23:46:06.693Z,8.93
2022-08-25T23:48:37.583Z,9.13
2022-08-25T23:51:08.251Z,8.73
2022-08-25T23:53:39.419Z,9.02
2022-08-25T23:56:09.695Z,8.30
2022-08-25T23:58:43.958Z,8.20
